ADDS METAR Data INFO
IDs: Format: Raw Decoded Include TAF

Data at: 0351 UTC 19 Jul 2018

METAR for:KMIA (Miami Intl, FL, US)
Text:KMIA 190253Z 20004KT 10SM SCT250 28/25 A3003 RMK AO2 SLP170 T02780250 52009
Temperature: 27.8°C ( 82°F)
Dewpoint: 25.0°C ( 77°F) [RH = 85%]
Pressure (altimeter):30.03 inches Hg (1017.0 mb) [Sea level pressure: 1017.0 mb]
Winds:from the SSW (200 degrees) at 5 MPH (4 knots; 2.1 m/s)
Visibility:10 or more sm (16+ km)
Ceiling:at least 12,000 feet AGL
Clouds: scattered clouds at 25000 feet AGL